sensor_id;sensor_type;location;lat;lon;timestamp;temperature;humidity
68813;DHT22;55808;48.112;11.552;2023-02-01T00:00:10;3.30;89.70
68813;DHT22;55808;48.112;11.552;2023-02-01T00:02:37;3.30;89.70
68813;DHT22;55808;48.112;11.552;2023-02-01T00:05:06;3.40;89.70
68813;DHT22;55808;48.112;11.552;2023-02-01T00:07:32;3.40;90.00
68813;DHT22;55808;48.112;11.552;2023-02-01T00:09:57;3.40;89.60
68813;DHT22;55808;48.112;11.552;2023-02-01T00:12:23;3.40;89.40
68813;DHT22;55808;48.112;11.552;2023-02-01T00:14:48;3.40;89.10
68813;DHT22;55808;48.112;11.552;2023-02-01T00:17:14;3.40;88.90
68813;DHT22;55808;48.112;11.552;2023-02-01T00:19:40;3.50;88.70
68813;DHT22;55808;48.112;11.552;2023-02-01T00:22:05;3.50;89.00
68813;DHT22;55808;48.112;11.552;2023-02-01T00:24:31;3.50;88.40
68813;DHT22;55808;48.112;11.552;2023-02-01T00:26:56;3.60;88.10
68813;DHT22;55808;48.112;11.552;2023-02-01T00:29:22;3.50;88.30
68813;DHT22;55808;48.112;11.552;2023-02-01T00:31:50;3.60;87.90
68813;DHT22;55808;48.112;11.552;2023-02-01T00:34:17;3.60;88.10
68813;DHT22;55808;48.112;11.552;2023-02-01T00:36:43;3.60;88.00
68813;DHT22;55808;48.112;11.552;2023-02-01T00:39:09;3.60;88.30
68813;DHT22;55808;48.112;11.552;2023-02-01T00:41:35;3.50;89.60
68813;DHT22;55808;48.112;11.552;2023-02-01T00:44:01;3.40;90.10
68813;DHT22;55808;48.112;11.552;2023-02-01T00:46:27;3.30;90.80
68813;DHT22;55808;48.112;11.552;2023-02-01T00:48:53;3.10;91.30
68813;DHT22;55808;48.112;11.552;2023-02-01T00:51:22;3.00;91.80
68813;DHT22;55808;48.112;11.552;2023-02-01T00:53:48;3.00;92.30
68813;DHT22;55808;48.112;11.552;2023-02-01T00:56:14;2.90;92.90
68813;DHT22;55808;48.112;11.552;2023-02-01T00:58:40;2.80;93.50
68813;DHT22;55808;48.112;11.552;2023-02-01T01:01:21;2.70;95.00
68813;DHT22;55808;48.112;11.552;2023-02-01T01:03:51;2.30;96.80
68813;DHT22;55808;48.112;11.552;2023-02-01T01:06:26;2.20;98.00
68813;DHT22;55808;48.112;11.552;2023-02-01T01:08:54;2.20;98.00
68813;DHT22;55808;48.112;11.552;2023-02-01T01:11:23;2.10;98.60
68813;DHT22;55808;48.112;11.552;2023-02-01T01:13:50;2.10;99.20
68813;DHT22;55808;48.112;11.552;2023-02-01T01:16:17;2.20;99.10
68813;DHT22;55808;48.112;11.552;2023-02-01T01:18:43;2.20;98.30
68813;DHT22;55808;48.112;11.552;2023-02-01T01:21:10;2.30;98.50
68813;DHT22;55808;48.112;11.552;2023-02-01T01:23:36;2.30;98.50
68813;DHT22;55808;48.112;11.552;2023-02-01T01:26:07;2.30;98.10
68813;DHT22;55808;48.112;11.552;2023-02-01T01:28:33;2.30;98.40
68813;DHT22;55808;48.112;11.552;2023-02-01T01:30:58;2.40;98.40
68813;DHT22;55808;48.112;11.552;2023-02-01T01:33:24;2.40;98.70
68813;DHT22;55808;48.112;11.552;2023-02-01T01:35:49;2.40;98.90
68813;DHT22;55808;48.112;11.552;2023-02-01T01:38:15;2.30;99.40
68813;DHT22;55808;48.112;11.552;2023-02-01T01:40:45;2.30;99.90
68813;DHT22;55808;48.112;11.552;2023-02-01T01:43:15;2.40;99.90
68813;DHT22;55808;48.112;11.552;2023-02-01T01:45:42;2.30;99.90
68813;DHT22;55808;48.112;11.552;2023-02-01T01:48:18;2.30;99.90
68813;DHT22;55808;48.112;11.552;2023-02-01T01:50:59;2.60;99.90
68813;DHT22;55808;48.112;11.552;2023-02-01T01:53:33;2.30;99.90
68813;DHT22;55808;48.112;11.552;2023-02-01T01:55:59;2.30;99.90
68813;DHT22;55808;48.112;11.552;2023-02-01T01:58:28;2.30;99.90
68813;DHT22;55808;48.112;11.552;2023-02-01T02:00:55;2.20;99.90
68813;DHT22;55808;48.112;11.552;2023-02-01T02:05:57;2.20;99.90
68813;DHT22;55808;48.112;11.552;2023-02-01T02:08:26;2.20;99.90
68813;DHT22;55808;48.112;11.552;2023-02-01T02:10:53;2.10;99.90
68813;DHT22;55808;48.112;11.552;2023-02-01T02:13:42;2.10;99.90
68813;DHT22;55808;48.112;11.552;2023-02-01T02:27:13;2.30;99.90
68813;DHT22;55808;48.112;11.552;2023-02-01T02:36:00;2.40;99.90
68813;DHT22;55808;48.112;11.552;2023-02-01T02:38:39;2.50;99.90
68813;DHT22;55808;48.112;11.552;2023-02-01T02:41:15;2.50;99.90
68813;DHT22;55808;48.112;11.552;2023-02-01T02:44:13;2.50;99.90
68813;DHT22;55808;48.112;11.552;2023-02-01T02:47:11;2.50;99.90
68813;DHT22;55808;48.112;11.552;2023-02-01T02:52:46;2.60;99.90
68813;DHT22;55808;48.112;11.552;2023-02-01T02:55:33;2.50;99.90
68813;DHT22;55808;48.112;11.552;2023-02-01T02:58:03;2.60;99.90
68813;DHT22;55808;48.112;11.552;2023-02-01T03:00:50;2.80;99.90
68813;DHT22;55808;48.112;11.552;2023-02-01T03:03:38;2.60;99.90
68813;DHT22;55808;48.112;11.552;2023-02-01T03:06:23;2.60;99.90
68813;DHT22;55808;48.112;11.552;2023-02-01T03:08:48;2.70;99.90
68813;DHT22;55808;48.112;11.552;2023-02-01T03:11:19;2.60;99.90
68813;DHT22;55808;48.112;11.552;2023-02-01T03:13:53;2.70;99.90
68813;DHT22;55808;48.112;11.552;2023-02-01T03:16:39;2.70;99.90
68813;DHT22;55808;48.112;11.552;2023-02-01T03:19:21;2.70;99.90
68813;DHT22;55808;48.112;11.552;2023-02-01T03:21:57;2.80;99.90
68813;DHT22;55808;48.112;11.552;2023-02-01T03:24:33;2.80;99.90
68813;DHT22;55808;48.112;11.552;2023-02-01T03:30:31;2.80;99.50
68813;DHT22;55808;48.112;11.552;2023-02-01T03:33:04;2.80;99.30
68813;DHT22;55808;48.112;11.552;2023-02-01T03:35:52;2.90;99.10
68813;DHT22;55808;48.112;11.552;2023-02-01T03:41:21;2.90;98.60
68813;DHT22;55808;48.112;11.552;2023-02-01T03:43:56;2.90;99.10
68813;DHT22;55808;48.112;11.552;2023-02-01T03:46:35;2.90;98.90
68813;DHT22;55808;48.112;11.552;2023-02-01T03:49:06;2.90;98.50
68813;DHT22;55808;48.112;11.552;2023-02-01T03:51:34;2.90;98.50
68813;DHT22;55808;48.112;11.552;2023-02-01T03:54:02;2.90;98.10
68813;DHT22;55808;48.112;11.552;2023-02-01T03:56:29;3.00;98.00
68813;DHT22;55808;48.112;11.552;2023-02-01T03:58:57;3.00;97.80
68813;DHT22;55808;48.112;11.552;2023-02-01T04:01:29;3.00;98.00
68813;DHT22;55808;48.112;11.552;2023-02-01T04:03:56;3.00;97.80
68813;DHT22;55808;48.112;11.552;2023-02-01T04:06:23;3.00;97.60
68813;DHT22;55808;48.112;11.552;2023-02-01T04:08:49;3.00;97.40
68813;DHT22;55808;48.112;11.552;2023-02-01T04:11:15;3.00;97.30
68813;DHT22;55808;48.112;11.552;2023-02-01T04:13:40;3.00;97.40
68813;DHT22;55808;48.112;11.552;2023-02-01T04:16:06;3.00;97.40
68813;DHT22;55808;48.112;11.552;2023-02-01T04:18:32;3.00;97.00
68813;DHT22;55808;48.112;11.552;2023-02-01T04:20:57;3.10;97.10
68813;DHT22;55808;48.112;11.552;2023-02-01T04:23:23;3.00;97.10
68813;DHT22;55808;48.112;11.552;2023-02-01T04:25:48;3.10;97.10
68813;DHT22;55808;48.112;11.552;2023-02-01T04:28:14;3.10;96.70
68813;DHT22;55808;48.112;11.552;2023-02-01T04:30:39;3.10;96.60
68813;DHT22;55808;48.112;11.552;2023-02-01T04:33:05;3.10;96.70
68813;DHT22;55808;48.112;11.552;2023-02-01T04:35:31;3.00;96.50
68813;DHT22;55808;48.112;11.552;2023-02-01T04:37:56;3.10;96.40
68813;DHT22;55808;48.112;11.552;2023-02-01T04:40:22;3.10;96.40
68813;DHT22;55808;48.112;11.552;2023-02-01T04:42:47;3.10;96.20
68813;DHT22;55808;48.112;11.552;2023-02-01T04:45:13;3.10;96.20
68813;DHT22;55808;48.112;11.552;2023-02-01T04:47:39;3.10;96.10
68813;DHT22;55808;48.112;11.552;2023-02-01T04:50:05;3.10;95.90
68813;DHT22;55808;48.112;11.552;2023-02-01T04:52:31;3.10;95.90
68813;DHT22;55808;48.112;11.552;2023-02-01T04:54:57;3.10;96.00
68813;DHT22;55808;48.112;11.552;2023-02-01T04:57:25;3.00;96.10
68813;DHT22;55808;48.112;11.552;2023-02-01T04:59:51;3.10;95.80
68813;DHT22;55808;48.112;11.552;2023-02-01T05:02:16;3.10;95.70
68813;DHT22;55808;48.112;11.552;2023-02-01T05:04:42;3.10;95.80
68813;DHT22;55808;48.112;11.552;2023-02-01T05:07:08;3.10;95.60
68813;DHT22;55808;48.112;11.552;2023-02-01T05:09:33;3.10;95.50
68813;DHT22;55808;48.112;11.552;2023-02-01T05:11:59;3.10;95.70
68813;DHT22;55808;48.112;11.552;2023-02-01T05:14:43;3.10;95.40
68813;DHT22;55808;48.112;11.552;2023-02-01T05:17:10;3.10;95.30
68813;DHT22;55808;48.112;11.552;2023-02-01T05:19:35;3.10;95.40
68813;DHT22;55808;48.112;11.552;2023-02-01T05:22:01;3.00;95.40
68813;DHT22;55808;48.112;11.552;2023-02-01T05:24:26;3.10;95.40
68813;DHT22;55808;48.112;11.552;2023-02-01T05:26:52;3.00;95.30
68813;DHT22;55808;48.112;11.552;2023-02-01T05:29:18;3.10;95.40
68813;DHT22;55808;48.112;11.552;2023-02-01T05:31:45;3.10;95.20
68813;DHT22;55808;48.112;11.552;2023-02-01T05:34:11;3.00;95.20
68813;DHT22;55808;48.112;11.552;2023-02-01T05:36:37;3.10;95.00
68813;DHT22;55808;48.112;11.552;2023-02-01T05:39:03;3.10;95.10
68813;DHT22;55808;48.112;11.552;2023-02-01T05:41:29;3.10;95.10
68813;DHT22;55808;48.112;11.552;2023-02-01T05:43:54;3.10;95.10
68813;DHT22;55808;48.112;11.552;2023-02-01T05:46:21;3.10;95.00
68813;DHT22;55808;48.112;11.552;2023-02-01T05:48:46;3.00;95.10
68813;DHT22;55808;48.112;11.552;2023-02-01T05:51:12;3.00;95.20
68813;DHT22;55808;48.112;11.552;2023-02-01T05:53:38;3.10;95.10
68813;DHT22;55808;48.112;11.552;2023-02-01T05:56:04;3.10;95.00
68813;DHT22;55808;48.112;11.552;2023-02-01T05:58:30;3.10;95.00
68813;DHT22;55808;48.112;11.552;2023-02-01T06:00:55;3.10;95.30
68813;DHT22;55808;48.112;11.552;2023-02-01T06:03:21;3.10;94.90
68813;DHT22;55808;48.112;11.552;2023-02-01T06:05:47;3.10;94.90
68813;DHT22;55808;48.112;11.552;2023-02-01T06:08:14;3.10;94.90
68813;DHT22;55808;48.112;11.552;2023-02-01T06:10:39;3.10;95.10
68813;DHT22;55808;48.112;11.552;2023-02-01T06:13:05;3.10;95.00
68813;DHT22;55808;48.112;11.552;2023-02-01T06:15:31;3.10;94.90
68813;DHT22;55808;48.112;11.552;2023-02-01T06:17:58;3.10;95.10
68813;DHT22;55808;48.112;11.552;2023-02-01T06:20:23;3.00;95.20
68813;DHT22;55808;48.112;11.552;2023-02-01T06:22:49;3.10;95.20
68813;DHT22;55808;48.112;11.552;2023-02-01T06:25:15;3.10;95.20
68813;DHT22;55808;48.112;11.552;2023-02-01T06:27:42;3.10;94.90
68813;DHT22;55808;48.112;11.552;2023-02-01T06:30:11;3.20;94.80
68813;DHT22;55808;48.112;11.552;2023-02-01T06:32:39;3.10;94.90
68813;DHT22;55808;48.112;11.552;2023-02-01T06:35:09;3.20;94.80
68813;DHT22;55808;48.112;11.552;2023-02-01T06:37:41;3.20;94.70
68813;DHT22;55808;48.112;11.552;2023-02-01T06:40:08;3.20;94.70
68813;DHT22;55808;48.112;11.552;2023-02-01T06:42:34;3.10;94.70
68813;DHT22;55808;48.112;11.552;2023-02-01T06:44:59;3.20;94.60
68813;DHT22;55808;48.112;11.552;2023-02-01T06:47:25;3.50;94.60
68813;DHT22;55808;48.112;11.552;2023-02-01T06:49:51;3.20;94.60
68813;DHT22;55808;48.112;11.552;2023-02-01T06:52:16;3.30;94.40
68813;DHT22;55808;48.112;11.552;2023-02-01T06:54:42;3.20;94.50
68813;DHT22;55808;48.112;11.552;2023-02-01T06:57:07;3.30;94.30
68813;DHT22;55808;48.112;11.552;2023-02-01T06:59:33;3.20;94.40
68813;DHT22;55808;48.112;11.552;2023-02-01T07:01:59;3.30;94.30
68813;DHT22;55808;48.112;11.552;2023-02-01T07:04:24;3.30;94.40
68813;DHT22;55808;48.112;11.552;2023-02-01T07:06:50;3.20;94.50
68813;DHT22;55808;48.112;11.552;2023-02-01T07:09:16;3.20;94.50
68813;DHT22;55808;48.112;11.552;2023-02-01T07:11:41;3.30;94.50
68813;DHT22;55808;48.112;11.552;2023-02-01T07:14:12;3.30;94.50
68813;DHT22;55808;48.112;11.552;2023-02-01T07:16:38;3.30;94.40
68813;DHT22;55808;48.112;11.552;2023-02-01T07:19:04;3.30;94.50
68813;DHT22;55808;48.112;11.552;2023-02-01T07:21:29;3.30;94.50
68813;DHT22;55808;48.112;11.552;2023-02-01T07:23:55;3.30;94.50
68813;DHT22;55808;48.112;11.552;2023-02-01T07:26:21;3.30;94.40
68813;DHT22;55808;48.112;11.552;2023-02-01T07:28:47;3.30;94.40
68813;DHT22;55808;48.112;11.552;2023-02-01T07:31:15;3.40;94.00
68813;DHT22;55808;48.112;11.552;2023-02-01T07:33:43;3.40;94.10
68813;DHT22;55808;48.112;11.552;2023-02-01T07:36:12;3.40;94.10
68813;DHT22;55808;48.112;11.552;2023-02-01T07:38:38;3.40;93.90
68813;DHT22;55808;48.112;11.552;2023-02-01T07:41:05;3.40;93.90
68813;DHT22;55808;48.112;11.552;2023-02-01T07:43:31;3.40;93.70
68813;DHT22;55808;48.112;11.552;2023-02-01T07:45:58;3.40;93.50
68813;DHT22;55808;48.112;11.552;2023-02-01T07:48:25;3.50;93.50
68813;DHT22;55808;48.112;11.552;2023-02-01T07:53:28;3.90;92.60
68813;DHT22;55808;48.112;11.552;2023-02-01T07:55:54;3.90;92.80
68813;DHT22;55808;48.112;11.552;2023-02-01T07:58:22;4.00;92.20
68813;DHT22;55808;48.112;11.552;2023-02-01T08:00:47;4.00;91.90
68813;DHT22;55808;48.112;11.552;2023-02-01T08:03:32;3.70;92.00
68813;DHT22;55808;48.112;11.552;2023-02-01T08:05:58;3.70;92.20
68813;DHT22;55808;48.112;11.552;2023-02-01T08:08:23;3.90;92.20
68813;DHT22;55808;48.112;11.552;2023-02-01T08:10:50;3.80;92.10
68813;DHT22;55808;48.112;11.552;2023-02-01T08:13:16;3.80;91.90
68813;DHT22;55808;48.112;11.552;2023-02-01T08:15:42;3.80;91.80
68813;DHT22;55808;48.112;11.552;2023-02-01T08:18:08;3.80;91.60
68813;DHT22;55808;48.112;11.552;2023-02-01T08:20:35;3.90;91.30
68813;DHT22;55808;48.112;11.552;2023-02-01T08:23:01;3.90;91.50
68813;DHT22;55808;48.112;11.552;2023-02-01T08:25:27;3.90;91.40
68813;DHT22;55808;48.112;11.552;2023-02-01T08:27:53;3.90;91.10
68813;DHT22;55808;48.112;11.552;2023-02-01T08:30:20;3.90;91.00
68813;DHT22;55808;48.112;11.552;2023-02-01T08:32:46;3.90;90.70
68813;DHT22;55808;48.112;11.552;2023-02-01T08:35:11;4.00;90.80
68813;DHT22;55808;48.112;11.552;2023-02-01T08:37:37;4.00;90.70
68813;DHT22;55808;48.112;11.552;2023-02-01T08:40:04;4.00;90.70
68813;DHT22;55808;48.112;11.552;2023-02-01T08:42:30;4.00;90.50
68813;DHT22;55808;48.112;11.552;2023-02-01T08:45:14;4.00;90.70
68813;DHT22;55808;48.112;11.552;2023-02-01T08:47:40;4.10;90.20
68813;DHT22;55808;48.112;11.552;2023-02-01T08:50:08;4.10;90.40
68813;DHT22;55808;48.112;11.552;2023-02-01T08:52:34;4.10;90.30
68813;DHT22;55808;48.112;11.552;2023-02-01T08:55:00;4.20;90.10
68813;DHT22;55808;48.112;11.552;2023-02-01T08:57:25;4.40;90.10
68813;DHT22;55808;48.112;11.552;2023-02-01T08:59:51;4.20;89.70
68813;DHT22;55808;48.112;11.552;2023-02-01T09:02:17;4.20;89.80
68813;DHT22;55808;48.112;11.552;2023-02-01T09:04:43;4.20;89.70
68813;DHT22;55808;48.112;11.552;2023-02-01T09:07:09;4.20;89.20
68813;DHT22;55808;48.112;11.552;2023-02-01T09:09:36;4.20;89.30
68813;DHT22;55808;48.112;11.552;2023-02-01T09:12:03;4.40;89.20
68813;DHT22;55808;48.112;11.552;2023-02-01T09:14:28;4.30;89.00
68813;DHT22;55808;48.112;11.552;2023-02-01T09:16:54;4.30;88.70
68813;DHT22;55808;48.112;11.552;2023-02-01T09:19:20;4.30;88.70
68813;DHT22;55808;48.112;11.552;2023-02-01T09:21:46;4.30;88.70
68813;DHT22;55808;48.112;11.552;2023-02-01T09:24:12;4.30;89.00
68813;DHT22;55808;48.112;11.552;2023-02-01T09:26:38;4.40;88.80
68813;DHT22;55808;48.112;11.552;2023-02-01T09:29:04;4.30;89.10
68813;DHT22;55808;48.112;11.552;2023-02-01T09:31:31;4.40;89.10
68813;DHT22;55808;48.112;11.552;2023-02-01T09:33:57;4.40;88.90
68813;DHT22;55808;48.112;11.552;2023-02-01T09:36:23;4.50;89.10
68813;DHT22;55808;48.112;11.552;2023-02-01T09:38:49;4.50;88.60
68813;DHT22;55808;48.112;11.552;2023-02-01T09:46:57;4.60;89.00
68813;DHT22;55808;48.112;11.552;2023-02-01T09:49:37;4.50;89.20
68813;DHT22;55808;48.112;11.552;2023-02-01T09:52:13;4.60;89.00
68813;DHT22;55808;48.112;11.552;2023-02-01T09:54:46;4.60;88.90
68813;DHT22;55808;48.112;11.552;2023-02-01T09:57:24;4.70;89.20
68813;DHT22;55808;48.112;11.552;2023-02-01T10:00:03;4.70;88.60
68813;DHT22;55808;48.112;11.552;2023-02-01T10:02:30;4.70;88.60
68813;DHT22;55808;48.112;11.552;2023-02-01T10:04:59;4.60;88.40
68813;DHT22;55808;48.112;11.552;2023-02-01T10:10:23;4.60;89.20
68813;DHT22;55808;48.112;11.552;2023-02-01T10:12:58;4.60;89.30
68813;DHT22;55808;48.112;11.552;2023-02-01T10:15:42;4.60;88.90
68813;DHT22;55808;48.112;11.552;2023-02-01T10:21:14;4.70;89.20
68813;DHT22;55808;48.112;11.552;2023-02-01T10:26:23;4.60;88.70
68813;DHT22;55808;48.112;11.552;2023-02-01T10:28:52;4.70;88.80
68813;DHT22;55808;48.112;11.552;2023-02-01T10:31:18;4.60;88.20
68813;DHT22;55808;48.112;11.552;2023-02-01T10:34:32;4.60;88.30
68813;DHT22;55808;48.112;11.552;2023-02-01T10:36:53;4.60;88.60
68813;DHT22;55808;48.112;11.552;2023-02-01T10:39:19;4.60;88.80
68813;DHT22;55808;48.112;11.552;2023-02-01T10:41:45;4.60;88.80
68813;DHT22;55808;48.112;11.552;2023-02-01T10:44:14;4.70;88.80
68813;DHT22;55808;48.112;11.552;2023-02-01T10:46:41;4.60;89.00
68813;DHT22;55808;48.112;11.552;2023-02-01T10:49:15;4.70;89.70
68813;DHT22;55808;48.112;11.552;2023-02-01T10:51:47;4.70;89.40
68813;DHT22;55808;48.112;11.552;2023-02-01T10:54:22;4.70;89.60
68813;DHT22;55808;48.112;11.552;2023-02-01T10:56:56;4.70;90.10
68813;DHT22;55808;48.112;11.552;2023-02-01T10:59:28;4.90;89.50
68813;DHT22;55808;48.112;11.552;2023-02-01T11:02:00;4.80;89.50
68813;DHT22;55808;48.112;11.552;2023-02-01T11:04:30;4.60;90.00
68813;DHT22;55808;48.112;11.552;2023-02-01T11:07:13;4.40;92.00
68813;DHT22;55808;48.112;11.552;2023-02-01T11:09:49;4.30;91.10
68813;DHT22;55808;48.112;11.552;2023-02-01T11:12:32;4.20;91.80
68813;DHT22;55808;48.112;11.552;2023-02-01T11:15:22;4.20;91.20
68813;DHT22;55808;48.112;11.552;2023-02-01T11:17:49;4.30;91.30
68813;DHT22;55808;48.112;11.552;2023-02-01T11:22:57;4.30;91.10
68813;DHT22;55808;48.112;11.552;2023-02-01T11:25:24;4.30;90.90
68813;DHT22;55808;48.112;11.552;2023-02-01T11:27:53;4.40;90.90
68813;DHT22;55808;48.112;11.552;2023-02-01T11:30:27;4.40;90.80
68813;DHT22;55808;48.112;11.552;2023-02-01T11:32:55;4.40;91.00
68813;DHT22;55808;48.112;11.552;2023-02-01T11:35:21;4.30;90.90
68813;DHT22;55808;48.112;11.552;2023-02-01T11:37:58;4.30;91.00
68813;DHT22;55808;48.112;11.552;2023-02-01T11:40:28;4.30;90.90
68813;DHT22;55808;48.112;11.552;2023-02-01T11:42:59;4.30;90.90
68813;DHT22;55808;48.112;11.552;2023-02-01T11:45:29;4.30;90.90
68813;DHT22;55808;48.112;11.552;2023-02-01T11:47:57;4.40;90.40
68813;DHT22;55808;48.112;11.552;2023-02-01T11:50:35;4.40;90.70
68813;DHT22;55808;48.112;11.552;2023-02-01T11:53:25;4.30;90.60
68813;DHT22;55808;48.112;11.552;2023-02-01T12:07:34;4.30;90.70
68813;DHT22;55808;48.112;11.552;2023-02-01T12:10:25;4.30;90.60
68813;DHT22;55808;48.112;11.552;2023-02-01T12:18:39;4.20;90.70
68813;DHT22;55808;48.112;11.552;2023-02-01T12:37:14;4.10;90.30
68813;DHT22;55808;48.112;11.552;2023-02-01T12:40:15;4.10;90.30
68813;DHT22;55808;48.112;11.552;2023-02-01T12:45:54;4.10;90.20
68813;DHT22;55808;48.112;11.552;2023-02-01T12:48:29;4.10;89.90
68813;DHT22;55808;48.112;11.552;2023-02-01T12:51:04;4.10;89.60
68813;DHT22;55808;48.112;11.552;2023-02-01T12:53:43;4.10;88.60
68813;DHT22;55808;48.112;11.552;2023-02-01T12:56:14;4.10;89.20
68813;DHT22;55808;48.112;11.552;2023-02-01T12:58:49;4.10;88.80
68813;DHT22;55808;48.112;11.552;2023-02-01T13:01:28;4.20;89.20
68813;DHT22;55808;48.112;11.552;2023-02-01T13:04:06;4.20;88.20
68813;DHT22;55808;48.112;11.552;2023-02-01T13:09:26;4.30;88.10
68813;DHT22;55808;48.112;11.552;2023-02-01T13:11:54;4.30;87.70
68813;DHT22;55808;48.112;11.552;2023-02-01T13:14:42;4.30;87.80
68813;DHT22;55808;48.112;11.552;2023-02-01T13:19:56;4.30;88.20
68813;DHT22;55808;48.112;11.552;2023-02-01T13:22:25;4.30;88.30
68813;DHT22;55808;48.112;11.552;2023-02-01T13:24:57;4.30;88.40
68813;DHT22;55808;48.112;11.552;2023-02-01T13:27:27;4.30;88.90
68813;DHT22;55808;48.112;11.552;2023-02-01T13:29:59;4.30;88.90
68813;DHT22;55808;48.112;11.552;2023-02-01T13:38:20;4.30;90.10
68813;DHT22;55808;48.112;11.552;2023-02-01T13:41:08;4.30;89.90
68813;DHT22;55808;48.112;11.552;2023-02-01T13:43:35;4.30;90.10
68813;DHT22;55808;48.112;11.552;2023-02-01T13:46:08;4.30;90.20
68813;DHT22;55808;48.112;11.552;2023-02-01T13:48:52;4.30;90.30
68813;DHT22;55808;48.112;11.552;2023-02-01T13:51:33;4.30;90.40
68813;DHT22;55808;48.112;11.552;2023-02-01T13:54:00;4.30;90.60
68813;DHT22;55808;48.112;11.552;2023-02-01T13:56:26;4.30;90.60
68813;DHT22;55808;48.112;11.552;2023-02-01T13:58:52;4.30;90.70
68813;DHT22;55808;48.112;11.552;2023-02-01T14:03:56;4.30;90.90
68813;DHT22;55808;48.112;11.552;2023-02-01T14:09:12;4.20;90.80
68813;DHT22;55808;48.112;11.552;2023-02-01T14:11:47;4.20;90.80
68813;DHT22;55808;48.112;11.552;2023-02-01T14:19:36;4.20;90.60
68813;DHT22;55808;48.112;11.552;2023-02-01T14:22:31;4.20;90.50
68813;DHT22;55808;48.112;11.552;2023-02-01T14:24:58;4.20;90.40
68813;DHT22;55808;48.112;11.552;2023-02-01T14:27:29;4.30;90.00
68813;DHT22;55808;48.112;11.552;2023-02-01T14:30:02;4.40;90.00
68813;DHT22;55808;48.112;11.552;2023-02-01T14:32:32;4.30;89.00
68813;DHT22;55808;48.112;11.552;2023-02-01T14:35:00;4.30;88.90
68813;DHT22;55808;48.112;11.552;2023-02-01T14:37:30;4.20;89.40
68813;DHT22;55808;48.112;11.552;2023-02-01T14:40:06;4.20;88.40
68813;DHT22;55808;48.112;11.552;2023-02-01T14:42:46;4.20;88.30
68813;DHT22;55808;48.112;11.552;2023-02-01T14:53:06;4.20;87.90
68813;DHT22;55808;48.112;11.552;2023-02-01T15:03:55;4.20;88.20
68813;DHT22;55808;48.112;11.552;2023-02-01T15:09:29;4.20;88.80
68813;DHT22;55808;48.112;11.552;2023-02-01T15:14:21;4.10;89.60
68813;DHT22;55808;48.112;11.552;2023-02-01T15:16:47;4.10;89.70
68813;DHT22;55808;48.112;11.552;2023-02-01T15:19:20;4.10;90.20
68813;DHT22;55808;48.112;11.552;2023-02-01T15:21:52;4.00;90.70
68813;DHT22;55808;48.112;11.552;2023-02-01T15:24:26;3.90;90.60
68813;DHT22;55808;48.112;11.552;2023-02-01T15:26:55;3.80;91.20
68813;DHT22;55808;48.112;11.552;2023-02-01T15:29:23;3.60;91.60
68813;DHT22;55808;48.112;11.552;2023-02-01T15:31:53;3.60;91.50
68813;DHT22;55808;48.112;11.552;2023-02-01T15:34:19;3.50;91.70
68813;DHT22;55808;48.112;11.552;2023-02-01T15:36:46;3.50;91.90
68813;DHT22;55808;48.112;11.552;2023-02-01T15:39:21;3.50;92.40
68813;DHT22;55808;48.112;11.552;2023-02-01T15:41:58;3.10;93.70
68813;DHT22;55808;48.112;11.552;2023-02-01T15:44:45;3.00;95.00
68813;DHT22;55808;48.112;11.552;2023-02-01T15:47:18;2.90;95.80
68813;DHT22;55808;48.112;11.552;2023-02-01T15:49:47;3.00;95.60
68813;DHT22;55808;48.112;11.552;2023-02-01T15:52:37;3.00;95.90
68813;DHT22;55808;48.112;11.552;2023-02-01T15:55:37;3.10;95.90
68813;DHT22;55808;48.112;11.552;2023-02-01T15:58:07;3.10;95.30
68813;DHT22;55808;48.112;11.552;2023-02-01T16:00:54;3.20;94.70
68813;DHT22;55808;48.112;11.552;2023-02-01T16:06:05;3.30;94.50
68813;DHT22;55808;48.112;11.552;2023-02-01T16:08:32;3.30;94.10
68813;DHT22;55808;48.112;11.552;2023-02-01T16:13:35;3.30;93.40
68813;DHT22;55808;48.112;11.552;2023-02-01T16:16:01;3.30;93.40
68813;DHT22;55808;48.112;11.552;2023-02-01T16:18:27;3.40;92.80
68813;DHT22;55808;48.112;11.552;2023-02-01T16:20:53;3.40;92.50
68813;DHT22;55808;48.112;11.552;2023-02-01T16:23:19;3.30;92.40
68813;DHT22;55808;48.112;11.552;2023-02-01T16:25:46;3.40;92.20
68813;DHT22;55808;48.112;11.552;2023-02-01T16:28:12;3.40;91.90
68813;DHT22;55808;48.112;11.552;2023-02-01T16:30:38;3.50;91.90
68813;DHT22;55808;48.112;11.552;2023-02-01T16:33:05;3.50;92.00
68813;DHT22;55808;48.112;11.552;2023-02-01T16:35:34;3.50;91.50
68813;DHT22;55808;48.112;11.552;2023-02-01T16:38:11;3.50;91.40
68813;DHT22;55808;48.112;11.552;2023-02-01T16:40:42;3.50;91.60
68813;DHT22;55808;48.112;11.552;2023-02-01T16:43:13;3.60;91.30
68813;DHT22;55808;48.112;11.552;2023-02-01T16:45:40;3.60;91.30
68813;DHT22;55808;48.112;11.552;2023-02-01T16:48:06;3.50;91.30
68813;DHT22;55808;48.112;11.552;2023-02-01T16:50:32;3.60;91.00
68813;DHT22;55808;48.112;11.552;2023-02-01T16:52:58;3.60;91.00
68813;DHT22;55808;48.112;11.552;2023-02-01T16:55:24;3.60;90.90
68813;DHT22;55808;48.112;11.552;2023-02-01T16:57:51;3.60;90.90
68813;DHT22;55808;48.112;11.552;2023-02-01T17:00:17;3.80;90.80
68813;DHT22;55808;48.112;11.552;2023-02-01T17:02:43;3.60;90.40
68813;DHT22;55808;48.112;11.552;2023-02-01T17:05:11;3.70;90.10
68813;DHT22;55808;48.112;11.552;2023-02-01T17:07:37;3.80;89.80
68813;DHT22;55808;48.112;11.552;2023-02-01T17:10:04;3.80;89.60
68813;DHT22;55808;48.112;11.552;2023-02-01T17:12:32;3.80;89.20
68813;DHT22;55808;48.112;11.552;2023-02-01T17:14:59;3.80;88.00
68813;DHT22;55808;48.112;11.552;2023-02-01T17:17:36;3.90;87.60
68813;DHT22;55808;48.112;11.552;2023-02-01T17:20:03;3.90;87.60
68813;DHT22;55808;48.112;11.552;2023-02-01T17:22:29;3.90;86.80
68813;DHT22;55808;48.112;11.552;2023-02-01T17:24:54;3.90;87.40
68813;DHT22;55808;48.112;11.552;2023-02-01T17:27:20;4.00;87.00
68813;DHT22;55808;48.112;11.552;2023-02-01T17:29:46;3.90;87.10
68813;DHT22;55808;48.112;11.552;2023-02-01T17:32:21;3.90;87.40
68813;DHT22;55808;48.112;11.552;2023-02-01T17:34:47;4.00;86.70
68813;DHT22;55808;48.112;11.552;2023-02-01T17:37:33;3.90;86.70
68813;DHT22;55808;48.112;11.552;2023-02-01T17:39:59;3.90;87.00
68813;DHT22;55808;48.112;11.552;2023-02-01T17:42:27;4.00;86.50
68813;DHT22;55808;48.112;11.552;2023-02-01T17:44:56;4.00;86.20
68813;DHT22;55808;48.112;11.552;2023-02-01T17:47:22;4.00;86.40
68813;DHT22;55808;48.112;11.552;2023-02-01T17:49:48;4.30;86.10
68813;DHT22;55808;48.112;11.552;2023-02-01T17:52:21;4.00;86.00
68813;DHT22;55808;48.112;11.552;2023-02-01T17:54:47;4.00;85.60
68813;DHT22;55808;48.112;11.552;2023-02-01T17:57:15;4.00;85.20
68813;DHT22;55808;48.112;11.552;2023-02-01T17:59:42;4.00;85.10